Nelson, NE (68961)

8:29 AM CDT on August 27, 2016 (GMT -0500)
Ne Nelson | | Change Station

Elev 1709 ft 40.21 °N, 98.06 °W | Updated 3 minutes ago

Clear
Clear
64.2 °F
Feels Like 64.2 °F
N
0.0
Wind Variable Wind from SSE

Today
High -- | Low -- °F
--% Chance of Precip.
Yesterday
High -- | Low -- °F
Precip. -- in
Pressure 30.03 in
Visibility 4.0 miles
Clouds Clear
Dew Point 64 °F
Humidity 99%
Rainfall 0.24 in
Snow Depth Not available.
6:55 AM 8:10 PM
Waning Crescent, 24% visible
METAR KHJH 271315Z AUTO 00000KT 4SM BR CLR 19/18 A3003 RMK AO2 T01850180
Pressure 30.03 in
Visibility 4.0 miles
Clouds Clear
Dew Point 64 °F
Humidity 99%
Rainfall 0.24 in
Snow Depth Not available.
6:55 AM 8:10 PM
Waning Crescent, 24% visible
METAR KHJH 271315Z AUTO 00000KT 4SM BR CLR 19/18 A3003 RMK AO2 T01850180

10-Day Weather Forecast

Almanac

Astronomy

Aug. 27, 2016 Rise Set
Actual Time
Civil Twilight
Nautical Twilight
Astronomical Twilight
Moon
Length of Visible Light
Length of Day
Tomorrow will be .
, % of the Moon is Illuminated

Today's Extremes

State Highs State Lows

Community

WunderPhotos

Upload Photos

1,935,337 photos uploaded!

WunderBlog® & News

Nearby

Air Quality

  Air Quality AQ Index Pollutant
Not available.

Snow Depth

Station Depth Elevation

Earthquake Activity

City Distance Mag. Time & Date
Minimum magnitude displayed is 2.5.

Coastal Water Temperatures

Place Temperature

Stations

Nearby Weather Stations

Station Location Temp. Windchill Dew Point Humidity Wind Precip. Elev Updated Type
                   

Watches & Warnings

There are currently no watches in effect.